Aviation Digital Data Service (ADDS)

Output produced by METARs form (0857 UTC 25 July 2014)
found at http://aviationweather.gov/adds/metars/
 
KHYA 250846Z 2509/2606 34004KT P6SM BKN250 
     FM251200 02007KT P6SM FEW250 
     FM251700 31007KT P6SM SKC 
     FM252000 23007KT P6SM FEW250